sensor_id;sensor_type;location;lat;lon;timestamp;pressure;altitude;pressure_sealevel;temperature;humidity
16525;BME280;8375;33.594;-117.718;2023-07-29T00:02:15;100032.78;;;25.19;67.52
16525;BME280;8375;33.594;-117.718;2023-07-29T00:04:43;100039.56;;;25.15;67.77
16525;BME280;8375;33.594;-117.718;2023-07-29T00:07:12;100027.81;;;24.72;68.95
16525;BME280;8375;33.594;-117.718;2023-07-29T00:09:40;100020.09;;;24.71;70.04
16525;BME280;8375;33.594;-117.718;2023-07-29T00:12:09;100018.66;;;24.68;69.98
16525;BME280;8375;33.594;-117.718;2023-07-29T00:14:38;100010.13;;;24.66;70.21
16525;BME280;8375;33.594;-117.718;2023-07-29T00:17:08;100010.63;;;24.82;69.63
16525;BME280;8375;33.594;-117.718;2023-07-29T00:19:37;100016.06;;;24.94;69.14
16525;BME280;8375;33.594;-117.718;2023-07-29T00:22:06;100011.19;;;24.90;69.19
16525;BME280;8375;33.594;-117.718;2023-07-29T00:24:35;100012.75;;;24.73;69.41
16525;BME280;8375;33.594;-117.718;2023-07-29T00:27:03;100001.88;;;24.49;71.12
16525;BME280;8375;33.594;-117.718;2023-07-29T00:29:32;100007.66;;;24.39;71.07
16525;BME280;8375;33.594;-117.718;2023-07-29T00:32:01;99997.38;;;24.50;71.24
16525;BME280;8375;33.594;-117.718;2023-07-29T00:34:31;100003.34;;;24.45;71.47
16525;BME280;8375;33.594;-117.718;2023-07-29T00:37:00;100015.34;;;24.48;70.93
16525;BME280;8375;33.594;-117.718;2023-07-29T00:39:28;100011.84;;;24.54;70.74
16525;BME280;8375;33.594;-117.718;2023-07-29T00:41:58;100013.47;;;24.55;70.66
16525;BME280;8375;33.594;-117.718;2023-07-29T00:44:27;100010.72;;;24.68;70.09
16525;BME280;8375;33.594;-117.718;2023-07-29T00:46:58;100009.44;;;24.78;69.42
16525;BME280;8375;33.594;-117.718;2023-07-29T00:49:27;100006.94;;;24.57;70.45
16525;BME280;8375;33.594;-117.718;2023-07-29T00:51:58;100003.88;;;24.22;71.77
16525;BME280;8375;33.594;-117.718;2023-07-29T00:54:27;99997.06;;;23.94;72.63
16525;BME280;8375;33.594;-117.718;2023-07-29T00:56:56;99995.22;;;24.01;73.14
16525;BME280;8375;33.594;-117.718;2023-07-29T00:59:25;99997.03;;;24.07;72.67
16525;BME280;8375;33.594;-117.718;2023-07-29T01:01:54;99997.47;;;24.04;73.13
16525;BME280;8375;33.594;-117.718;2023-07-29T01:04:23;99989.31;;;23.99;73.60
16525;BME280;8375;33.594;-117.718;2023-07-29T01:06:56;99989.59;;;23.77;74.25
16525;BME280;8375;33.594;-117.718;2023-07-29T01:09:33;99988.59;;;23.78;74.88
16525;BME280;8375;33.594;-117.718;2023-07-29T01:12:10;99986.13;;;23.83;74.18
16525;BME280;8375;33.594;-117.718;2023-07-29T01:14:46;99982.63;;;23.83;74.32
16525;BME280;8375;33.594;-117.718;2023-07-29T01:17:23;99987.47;;;24.06;73.68
16525;BME280;8375;33.594;-117.718;2023-07-29T01:20:00;99989.09;;;24.07;72.97
16525;BME280;8375;33.594;-117.718;2023-07-29T01:22:33;99990.28;;;24.11;72.63
16525;BME280;8375;33.594;-117.718;2023-07-29T01:25:04;99992.13;;;24.11;73.48
16525;BME280;8375;33.594;-117.718;2023-07-29T01:27:33;99993.44;;;24.27;72.33
16525;BME280;8375;33.594;-117.718;2023-07-29T01:30:02;99993.94;;;24.17;72.33
16525;BME280;8375;33.594;-117.718;2023-07-29T01:32:37;99995.41;;;24.38;71.89
16525;BME280;8375;33.594;-117.718;2023-07-29T01:35:15;100000.19;;;24.29;71.90
16525;BME280;8375;33.594;-117.718;2023-07-29T01:37:49;100000.38;;;23.82;73.78
16525;BME280;8375;33.594;-117.718;2023-07-29T01:40:22;100010.00;;;23.70;74.33
16525;BME280;8375;33.594;-117.718;2023-07-29T01:42:53;100005.75;;;23.62;75.01
16525;BME280;8375;33.594;-117.718;2023-07-29T01:45:24;100001.41;;;23.81;74.39
16525;BME280;8375;33.594;-117.718;2023-07-29T01:47:53;100003.47;;;23.79;74.36
16525;BME280;8375;33.594;-117.718;2023-07-29T01:50:21;100001.78;;;23.85;74.24
16525;BME280;8375;33.594;-117.718;2023-07-29T01:52:50;100005.78;;;23.55;75.19
16525;BME280;8375;33.594;-117.718;2023-07-29T01:55:20;100001.28;;;23.63;75.19
16525;BME280;8375;33.594;-117.718;2023-07-29T01:57:49;99999.06;;;23.53;75.53
16525;BME280;8375;33.594;-117.718;2023-07-29T02:00:18;100006.00;;;23.47;75.88
16525;BME280;8375;33.594;-117.718;2023-07-29T02:02:47;99997.69;;;23.37;76.15
16525;BME280;8375;33.594;-117.718;2023-07-29T02:05:16;99999.72;;;23.21;77.31
16525;BME280;8375;33.594;-117.718;2023-07-29T02:07:44;99997.06;;;23.14;77.60
16525;BME280;8375;33.594;-117.718;2023-07-29T02:10:13;99992.81;;;23.07;78.25
16525;BME280;8375;33.594;-117.718;2023-07-29T02:12:43;100003.81;;;23.17;77.76
16525;BME280;8375;33.594;-117.718;2023-07-29T02:15:12;100000.97;;;23.25;77.94
16525;BME280;8375;33.594;-117.718;2023-07-29T02:17:42;100001.31;;;23.42;77.10
16525;BME280;8375;33.594;-117.718;2023-07-29T02:20:11;100002.91;;;23.57;76.00
16525;BME280;8375;33.594;-117.718;2023-07-29T02:22:40;100005.59;;;23.50;76.00
16525;BME280;8375;33.594;-117.718;2023-07-29T02:25:09;100002.75;;;23.38;76.31
16525;BME280;8375;33.594;-117.718;2023-07-29T02:27:37;100010.72;;;23.11;77.46
16525;BME280;8375;33.594;-117.718;2023-07-29T02:30:08;100013.19;;;22.99;78.49
16525;BME280;8375;33.594;-117.718;2023-07-29T02:32:38;100005.66;;;22.90;78.53
16525;BME280;8375;33.594;-117.718;2023-07-29T02:35:08;100008.31;;;22.83;79.29
16525;BME280;8375;33.594;-117.718;2023-07-29T02:37:36;100010.75;;;22.78;79.37
16525;BME280;8375;33.594;-117.718;2023-07-29T02:40:06;100007.91;;;22.73;79.46
16525;BME280;8375;33.594;-117.718;2023-07-29T02:42:35;100001.97;;;22.64;80.04
16525;BME280;8375;33.594;-117.718;2023-07-29T02:45:07;100013.59;;;22.69;80.24
16525;BME280;8375;33.594;-117.718;2023-07-29T02:47:38;100011.78;;;22.77;79.91
16525;BME280;8375;33.594;-117.718;2023-07-29T02:50:07;100017.03;;;22.70;80.04
16525;BME280;8375;33.594;-117.718;2023-07-29T02:52:37;100018.25;;;22.74;79.88
16525;BME280;8375;33.594;-117.718;2023-07-29T02:55:06;100029.88;;;22.80;79.99
16525;BME280;8375;33.594;-117.718;2023-07-29T02:57:35;100024.38;;;22.81;79.31
16525;BME280;8375;33.594;-117.718;2023-07-29T03:00:05;100029.06;;;22.86;79.00
16525;BME280;8375;33.594;-117.718;2023-07-29T03:02:36;100031.91;;;22.91;79.18
16525;BME280;8375;33.594;-117.718;2023-07-29T03:05:05;100033.75;;;22.97;78.51
16525;BME280;8375;33.594;-117.718;2023-07-29T03:07:34;100035.56;;;22.97;78.32
16525;BME280;8375;33.594;-117.718;2023-07-29T03:10:03;100032.13;;;22.96;78.01
16525;BME280;8375;33.594;-117.718;2023-07-29T03:12:32;100035.38;;;23.05;78.37
16525;BME280;8375;33.594;-117.718;2023-07-29T03:15:01;100036.81;;;23.08;77.73
16525;BME280;8375;33.594;-117.718;2023-07-29T03:17:30;100033.53;;;23.06;78.16
16525;BME280;8375;33.594;-117.718;2023-07-29T03:20:00;100034.16;;;23.08;77.75
16525;BME280;8375;33.594;-117.718;2023-07-29T03:22:29;100042.28;;;23.06;77.96
16525;BME280;8375;33.594;-117.718;2023-07-29T03:24:58;100044.53;;;23.03;77.84
16525;BME280;8375;33.594;-117.718;2023-07-29T03:27:27;100049.44;;;23.06;77.97
16525;BME280;8375;33.594;-117.718;2023-07-29T03:29:55;100045.75;;;23.00;78.00
16525;BME280;8375;33.594;-117.718;2023-07-29T03:32:24;100052.06;;;22.99;78.40
16525;BME280;8375;33.594;-117.718;2023-07-29T03:34:53;100040.69;;;22.98;78.39
16525;BME280;8375;33.594;-117.718;2023-07-29T03:37:23;100046.38;;;22.95;77.99
16525;BME280;8375;33.594;-117.718;2023-07-29T03:39:52;100047.81;;;22.91;78.24
16525;BME280;8375;33.594;-117.718;2023-07-29T03:42:20;100040.66;;;22.78;78.11
16525;BME280;8375;33.594;-117.718;2023-07-29T03:44:49;100058.75;;;22.61;78.71
16525;BME280;8375;33.594;-117.718;2023-07-29T03:47:18;100056.69;;;22.56;79.25
16525;BME280;8375;33.594;-117.718;2023-07-29T03:49:47;100063.19;;;22.47;79.38
16525;BME280;8375;33.594;-117.718;2023-07-29T03:52:16;100070.13;;;22.48;80.02
16525;BME280;8375;33.594;-117.718;2023-07-29T03:54:46;100074.00;;;22.46;80.38
16525;BME280;8375;33.594;-117.718;2023-07-29T03:57:15;100076.41;;;22.47;80.08
16525;BME280;8375;33.594;-117.718;2023-07-29T03:59:44;100073.13;;;22.38;80.14
16525;BME280;8375;33.594;-117.718;2023-07-29T04:02:13;100079.59;;;22.36;80.78
16525;BME280;8375;33.594;-117.718;2023-07-29T04:04:42;100082.47;;;22.34;80.70
16525;BME280;8375;33.594;-117.718;2023-07-29T04:07:14;100084.28;;;22.34;80.89
16525;BME280;8375;33.594;-117.718;2023-07-29T04:09:42;100084.88;;;22.29;80.77
16525;BME280;8375;33.594;-117.718;2023-07-29T04:12:13;100082.25;;;22.29;81.31
16525;BME280;8375;33.594;-117.718;2023-07-29T04:14:42;100082.03;;;22.24;80.81
16525;BME280;8375;33.594;-117.718;2023-07-29T04:17:10;100088.66;;;22.06;81.11
16525;BME280;8375;33.594;-117.718;2023-07-29T04:19:39;100092.91;;;22.01;81.92
16525;BME280;8375;33.594;-117.718;2023-07-29T04:22:09;100097.72;;;21.90;82.26
16525;BME280;8375;33.594;-117.718;2023-07-29T04:24:38;100098.72;;;21.89;83.00
16525;BME280;8375;33.594;-117.718;2023-07-29T04:27:07;100091.59;;;21.83;83.13
16525;BME280;8375;33.594;-117.718;2023-07-29T04:29:37;100104.34;;;21.73;83.59
16525;BME280;8375;33.594;-117.718;2023-07-29T04:32:06;100102.13;;;21.76;84.10
16525;BME280;8375;33.594;-117.718;2023-07-29T04:34:35;100096.56;;;21.64;84.02
16525;BME280;8375;33.594;-117.718;2023-07-29T04:37:04;100097.56;;;21.63;84.34
16525;BME280;8375;33.594;-117.718;2023-07-29T04:39:33;100098.91;;;21.81;84.16
16525;BME280;8375;33.594;-117.718;2023-07-29T04:42:02;100098.72;;;21.89;84.20
16525;BME280;8375;33.594;-117.718;2023-07-29T04:44:30;100099.00;;;22.01;83.25
16525;BME280;8375;33.594;-117.718;2023-07-29T04:47:01;100102.69;;;22.07;83.09
16525;BME280;8375;33.594;-117.718;2023-07-29T04:49:30;100102.91;;;22.05;82.33
16525;BME280;8375;33.594;-117.718;2023-07-29T04:51:58;100102.63;;;21.93;82.46
16525;BME280;8375;33.594;-117.718;2023-07-29T04:54:27;100098.72;;;21.82;83.36
16525;BME280;8375;33.594;-117.718;2023-07-29T04:56:56;100107.03;;;21.79;83.75
16525;BME280;8375;33.594;-117.718;2023-07-29T04:59:24;100113.09;;;21.73;84.10
16525;BME280;8375;33.594;-117.718;2023-07-29T05:01:53;100115.72;;;21.73;84.13
16525;BME280;8375;33.594;-117.718;2023-07-29T05:04:23;100110.22;;;21.68;84.51
16525;BME280;8375;33.594;-117.718;2023-07-29T05:06:52;100116.50;;;21.67;84.73
16525;BME280;8375;33.594;-117.718;2023-07-29T05:09:21;100124.16;;;21.62;85.07
16525;BME280;8375;33.594;-117.718;2023-07-29T05:11:50;100118.25;;;21.60;85.07
16525;BME280;8375;33.594;-117.718;2023-07-29T05:14:19;100125.34;;;21.59;85.26
16525;BME280;8375;33.594;-117.718;2023-07-29T05:16:47;100114.66;;;21.67;85.29
16525;BME280;8375;33.594;-117.718;2023-07-29T05:19:16;100117.63;;;21.58;84.77
16525;BME280;8375;33.594;-117.718;2023-07-29T05:21:46;100113.75;;;21.53;85.02
16525;BME280;8375;33.594;-117.718;2023-07-29T05:24:15;100116.56;;;21.52;85.65
16525;BME280;8375;33.594;-117.718;2023-07-29T05:26:43;100111.50;;;21.57;85.33
16525;BME280;8375;33.594;-117.718;2023-07-29T05:29:12;100105.56;;;21.48;85.24
16525;BME280;8375;33.594;-117.718;2023-07-29T05:31:41;100108.06;;;21.57;85.41
16525;BME280;8375;33.594;-117.718;2023-07-29T05:34:09;100102.94;;;21.48;85.14
16525;BME280;8375;33.594;-117.718;2023-07-29T05:36:38;100098.97;;;21.37;85.97
16525;BME280;8375;33.594;-117.718;2023-07-29T05:39:09;100109.78;;;21.43;86.10
16525;BME280;8375;33.594;-117.718;2023-07-29T05:41:38;100109.03;;;21.49;85.72
16525;BME280;8375;33.594;-117.718;2023-07-29T05:44:07;100106.91;;;21.37;85.84
16525;BME280;8375;33.594;-117.718;2023-07-29T05:46:36;100096.69;;;21.28;86.48
16525;BME280;8375;33.594;-117.718;2023-07-29T05:49:05;100095.69;;;21.29;86.63
16525;BME280;8375;33.594;-117.718;2023-07-29T05:51:33;100092.03;;;21.30;86.79
16525;BME280;8375;33.594;-117.718;2023-07-29T05:54:02;100092.28;;;21.35;87.50
16525;BME280;8375;33.594;-117.718;2023-07-29T05:56:33;100094.69;;;21.30;87.08
16525;BME280;8375;33.594;-117.718;2023-07-29T05:59:02;100089.81;;;21.33;88.01
16525;BME280;8375;33.594;-117.718;2023-07-29T06:01:30;100091.16;;;21.22;87.40
16525;BME280;8375;33.594;-117.718;2023-07-29T06:03:59;100092.19;;;21.21;88.54
16525;BME280;8375;33.594;-117.718;2023-07-29T06:06:28;100095.63;;;21.22;88.42
16525;BME280;8375;33.594;-117.718;2023-07-29T06:08:56;100091.72;;;21.18;88.38
16525;BME280;8375;33.594;-117.718;2023-07-29T06:11:26;100085.38;;;21.12;88.07
16525;BME280;8375;33.594;-117.718;2023-07-29T06:13:56;100087.53;;;21.02;88.65
16525;BME280;8375;33.594;-117.718;2023-07-29T06:16:25;100090.22;;;21.08;89.61
16525;BME280;8375;33.594;-117.718;2023-07-29T06:18:53;100092.28;;;21.13;89.48
16525;BME280;8375;33.594;-117.718;2023-07-29T06:21:22;100096.75;;;21.13;89.31
16525;BME280;8375;33.594;-117.718;2023-07-29T06:23:51;100095.44;;;21.23;89.45
16525;BME280;8375;33.594;-117.718;2023-07-29T06:26:20;100101.78;;;21.29;88.90
16525;BME280;8375;33.594;-117.718;2023-07-29T06:28:48;100093.91;;;21.14;87.85
16525;BME280;8375;33.594;-117.718;2023-07-29T06:31:19;100094.06;;;21.06;88.33
16525;BME280;8375;33.594;-117.718;2023-07-29T06:33:47;100089.88;;;21.18;89.93
16525;BME280;8375;33.594;-117.718;2023-07-29T06:36:16;100098.47;;;21.20;89.79
16525;BME280;8375;33.594;-117.718;2023-07-29T06:38:45;100092.66;;;21.10;88.94
16525;BME280;8375;33.594;-117.718;2023-07-29T06:41:14;100094.44;;;21.03;88.88
16525;BME280;8375;33.594;-117.718;2023-07-29T06:43:42;100089.34;;;21.01;89.63
16525;BME280;8375;33.594;-117.718;2023-07-29T06:46:11;100097.06;;;21.03;90.62
16525;BME280;8375;33.594;-117.718;2023-07-29T06:48:41;100081.25;;;21.03;90.15
16525;BME280;8375;33.594;-117.718;2023-07-29T06:51:10;100088.47;;;20.94;89.77
16525;BME280;8375;33.594;-117.718;2023-07-29T06:53:39;100079.16;;;20.76;89.88
16525;BME280;8375;33.594;-117.718;2023-07-29T06:56:07;100075.44;;;20.71;90.17
16525;BME280;8375;33.594;-117.718;2023-07-29T06:58:36;100076.13;;;20.58;90.95
16525;BME280;8375;33.594;-117.718;2023-07-29T07:01:05;100087.22;;;20.53;91.32
16525;BME280;8375;33.594;-117.718;2023-07-29T07:03:34;100088.22;;;20.52;91.83
16525;BME280;8375;33.594;-117.718;2023-07-29T07:06:04;100083.31;;;20.49;92.00
16525;BME280;8375;33.594;-117.718;2023-07-29T07:08:33;100084.53;;;20.46;92.34
16525;BME280;8375;33.594;-117.718;2023-07-29T07:11:01;100092.59;;;20.45;92.68
16525;BME280;8375;33.594;-117.718;2023-07-29T07:13:30;100088.72;;;20.41;92.77
16525;BME280;8375;33.594;-117.718;2023-07-29T07:15:59;100101.25;;;20.38;93.10
16525;BME280;8375;33.594;-117.718;2023-07-29T07:18:27;100105.34;;;20.41;93.66
16525;BME280;8375;33.594;-117.718;2023-07-29T07:20:56;100104.09;;;20.37;93.32
16525;BME280;8375;33.594;-117.718;2023-07-29T07:23:27;100113.16;;;20.34;93.11
16525;BME280;8375;33.594;-117.718;2023-07-29T07:25:55;100100.38;;;20.31;92.68
16525;BME280;8375;33.594;-117.718;2023-07-29T07:28:24;100100.94;;;20.27;93.04
16525;BME280;8375;33.594;-117.718;2023-07-29T07:30:53;100098.19;;;20.20;93.33
16525;BME280;8375;33.594;-117.718;2023-07-29T07:33:22;100099.19;;;20.19;93.56
16525;BME280;8375;33.594;-117.718;2023-07-29T07:35:51;100105.75;;;20.23;93.80
16525;BME280;8375;33.594;-117.718;2023-07-29T07:38:19;100110.00;;;20.24;93.82
16525;BME280;8375;33.594;-117.718;2023-07-29T07:40:55;100108.56;;;20.21;93.84
16525;BME280;8375;33.594;-117.718;2023-07-29T07:43:24;100114.22;;;20.18;94.02
16525;BME280;8375;33.594;-117.718;2023-07-29T07:45:58;100109.94;;;20.17;94.41
16525;BME280;8375;33.594;-117.718;2023-07-29T07:48:26;100111.75;;;20.17;94.43
16525;BME280;8375;33.594;-117.718;2023-07-29T07:50:55;100117.22;;;20.15;94.65
16525;BME280;8375;33.594;-117.718;2023-07-29T07:53:24;100115.56;;;20.14;94.53
16525;BME280;8375;33.594;-117.718;2023-07-29T07:55:55;100114.94;;;20.12;94.21
16525;BME280;8375;33.594;-117.718;2023-07-29T07:58:24;100109.22;;;20.08;94.34
16525;BME280;8375;33.594;-117.718;2023-07-29T08:00:53;100108.03;;;20.11;94.76
16525;BME280;8375;33.594;-117.718;2023-07-29T08:03:28;100095.66;;;20.12;94.84
16525;BME280;8375;33.594;-117.718;2023-07-29T08:05:57;100095.03;;;20.10;95.06
16525;BME280;8375;33.594;-117.718;2023-07-29T08:08:26;100089.75;;;20.10;95.01
16525;BME280;8375;33.594;-117.718;2023-07-29T08:10:57;100084.13;;;20.13;95.67
16525;BME280;8375;33.594;-117.718;2023-07-29T08:13:25;100086.22;;;20.17;95.63
16525;BME280;8375;33.594;-117.718;2023-07-29T08:15:54;100087.66;;;20.20;95.38
16525;BME280;8375;33.594;-117.718;2023-07-29T08:18:23;100087.50;;;20.21;95.49
16525;BME280;8375;33.594;-117.718;2023-07-29T08:20:55;100089.66;;;20.18;94.99
16525;BME280;8375;33.594;-117.718;2023-07-29T08:23:25;100083.75;;;20.16;95.05
16525;BME280;8375;33.594;-117.718;2023-07-29T08:25:56;100084.50;;;20.10;95.34
16525;BME280;8375;33.594;-117.718;2023-07-29T08:28:28;100074.41;;;19.98;95.49
16525;BME280;8375;33.594;-117.718;2023-07-29T08:30:57;100078.31;;;20.02;95.73
16525;BME280;8375;33.594;-117.718;2023-07-29T08:33:26;100076.41;;;19.96;96.30
16525;BME280;8375;33.594;-117.718;2023-07-29T08:35:55;100075.78;;;19.94;96.62
16525;BME280;8375;33.594;-117.718;2023-07-29T08:38:24;100076.63;;;19.95;96.53
16525;BME280;8375;33.594;-117.718;2023-07-29T08:40:58;100077.25;;;19.97;96.90
16525;BME280;8375;33.594;-117.718;2023-07-29T08:43:29;100068.72;;;19.95;97.18
16525;BME280;8375;33.594;-117.718;2023-07-29T08:45:59;100080.69;;;19.97;96.97
16525;BME280;8375;33.594;-117.718;2023-07-29T08:48:33;100077.41;;;19.95;96.84
16525;BME280;8375;33.594;-117.718;2023-07-29T08:51:04;100075.16;;;19.92;96.78
16525;BME280;8375;33.594;-117.718;2023-07-29T08:53:34;100083.38;;;19.89;96.71
16525;BME280;8375;33.594;-117.718;2023-07-29T08:56:05;100082.13;;;19.85;97.00
16525;BME280;8375;33.594;-117.718;2023-07-29T08:58:34;100086.59;;;19.84;96.87
16525;BME280;8375;33.594;-117.718;2023-07-29T09:01:03;100079.22;;;19.79;96.89
16525;BME280;8375;33.594;-117.718;2023-07-29T09:03:32;100075.06;;;19.85;97.23
16525;BME280;8375;33.594;-117.718;2023-07-29T09:06:02;100075.69;;;19.87;97.70
16525;BME280;8375;33.594;-117.718;2023-07-29T09:08:31;100070.78;;;19.84;97.59
16525;BME280;8375;33.594;-117.718;2023-07-29T09:11:00;100058.34;;;19.78;97.60
16525;BME280;8375;33.594;-117.718;2023-07-29T09:13:31;100065.03;;;19.81;97.74
16525;BME280;8375;33.594;-117.718;2023-07-29T09:16:00;100063.78;;;19.76;97.87
16525;BME280;8375;33.594;-117.718;2023-07-29T09:18:28;100066.88;;;19.80;98.24
16525;BME280;8375;33.594;-117.718;2023-07-29T09:20:59;100070.41;;;19.72;98.77
16525;BME280;8375;33.594;-117.718;2023-07-29T09:23:29;100071.59;;;19.70;98.59
16525;BME280;8375;33.594;-117.718;2023-07-29T09:26:06;100065.69;;;19.68;98.60
16525;BME280;8375;33.594;-117.718;2023-07-29T09:28:38;100069.84;;;19.62;98.44
16525;BME280;8375;33.594;-117.718;2023-07-29T09:31:07;100069.56;;;19.57;98.80
16525;BME280;8375;33.594;-117.718;2023-07-29T09:33:47;100075.84;;;19.56;98.67
16525;BME280;8375;33.594;-117.718;2023-07-29T09:36:15;100078.38;;;19.49;98.71
16525;BME280;8375;33.594;-117.718;2023-07-29T09:38:45;100073.00;;;19.42;98.74
16525;BME280;8375;33.594;-117.718;2023-07-29T09:41:15;100076.00;;;19.39;98.85
16525;BME280;8375;33.594;-117.718;2023-07-29T09:43:45;100075.66;;;19.42;99.20
16525;BME280;8375;33.594;-117.718;2023-07-29T09:46:14;100073.38;;;19.39;99.30
16525;BME280;8375;33.594;-117.718;2023-07-29T09:48:43;100077.47;;;19.42;98.89
16525;BME280;8375;33.594;-117.718;2023-07-29T09:51:14;100071.72;;;19.38;98.83
16525;BME280;8375;33.594;-117.718;2023-07-29T09:53:44;100067.47;;;19.37;99.11
16525;BME280;8375;33.594;-117.718;2023-07-29T09:56:14;100065.84;;;19.36;98.99
16525;BME280;8375;33.594;-117.718;2023-07-29T09:58:45;100062.91;;;19.31;98.81
16525;BME280;8375;33.594;-117.718;2023-07-29T10:01:14;100063.75;;;19.31;98.83
16525;BME280;8375;33.594;-117.718;2023-07-29T10:03:44;100065.91;;;19.28;99.17
16525;BME280;8375;33.594;-117.718;2023-07-29T10:06:14;100073.00;;;19.27;99.14
16525;BME280;8375;33.594;-117.718;2023-07-29T10:08:43;100075.63;;;19.27;99.00
16525;BME280;8375;33.594;-117.718;2023-07-29T10:11:13;100067.91;;;19.26;99.55
16525;BME280;8375;33.594;-117.718;2023-07-29T10:13:41;100080.41;;;19.24;99.34
16525;BME280;8375;33.594;-117.718;2023-07-29T10:16:12;100075.97;;;19.24;99.59
16525;BME280;8375;33.594;-117.718;2023-07-29T10:18:42;100068.25;;;19.23;99.94
16525;BME280;8375;33.594;-117.718;2023-07-29T10:21:11;100061.56;;;19.20;100.00
16525;BME280;8375;33.594;-117.718;2023-07-29T10:23:46;100054.09;;;19.24;100.00
16525;BME280;8375;33.594;-117.718;2023-07-29T10:26:17;100058.00;;;19.28;100.00
16525;BME280;8375;33.594;-117.718;2023-07-29T10:28:48;100057.72;;;19.23;100.00
16525;BME280;8375;33.594;-117.718;2023-07-29T10:31:23;100057.38;;;19.26;100.00
16525;BME280;8375;33.594;-117.718;2023-07-29T10:33:51;100057.72;;;19.23;100.00
16525;BME280;8375;33.594;-117.718;2023-07-29T10:36:20;100051.03;;;19.20;100.00
16525;BME280;8375;33.594;-117.718;2023-07-29T10:38:50;100052.47;;;19.23;100.00
16525;BME280;8375;33.594;-117.718;2023-07-29T10:41:19;100059.72;;;19.20;100.00
16525;BME280;8375;33.594;-117.718;2023-07-29T10:43:47;100052.38;;;19.16;100.00
16525;BME280;8375;33.594;-117.718;2023-07-29T10:46:17;100058.00;;;19.13;100.00
16525;BME280;8375;33.594;-117.718;2023-07-29T10:48:53;100056.16;;;19.13;100.00
16525;BME280;8375;33.594;-117.718;2023-07-29T10:51:24;100048.13;;;19.15;100.00
16525;BME280;8375;33.594;-117.718;2023-07-29T10:53:53;100044.66;;;19.14;100.00
16525;BME280;8375;33.594;-117.718;2023-07-29T10:56:27;100039.59;;;19.13;100.00
16525;BME280;8375;33.594;-117.718;2023-07-29T10:58:57;100042.22;;;19.13;100.00
16525;BME280;8375;33.594;-117.718;2023-07-29T11:01:30;100046.75;;;19.19;100.00
16525;BME280;8375;33.594;-117.718;2023-07-29T11:04:25;100050.84;;;19.22;100.00
16525;BME280;8375;33.594;-117.718;2023-07-29T11:07:22;100049.28;;;19.12;100.00
16525;BME280;8375;33.594;-117.718;2023-07-29T11:09:57;100054.81;;;19.17;100.00
16525;BME280;8375;33.594;-117.718;2023-07-29T11:12:41;100060.28;;;19.16;100.00
16525;BME280;8375;33.594;-117.718;2023-07-29T11:15:17;100067.81;;;19.19;100.00
16525;BME280;8375;33.594;-117.718;2023-07-29T11:17:47;100067.34;;;19.15;100.00
16525;BME280;8375;33.594;-117.718;2023-07-29T11:20:21;100068.03;;;19.09;100.00
16525;BME280;8375;33.594;-117.718;2023-07-29T11:22:50;100061.34;;;19.07;100.00
16525;BME280;8375;33.594;-117.718;2023-07-29T11:25:21;100064.13;;;19.05;100.00
16525;BME280;8375;33.594;-117.718;2023-07-29T11:27:52;100063.84;;;19.00;100.00
16525;BME280;8375;33.594;-117.718;2023-07-29T11:30:21;100069.28;;;18.98;100.00
16525;BME280;8375;33.594;-117.718;2023-07-29T11:32:53;100067.78;;;18.96;100.00
16525;BME280;8375;33.594;-117.718;2023-07-29T11:35:24;100059.91;;;18.96;100.00
16525;BME280;8375;33.594;-117.718;2023-07-29T11:37:55;100068.63;;;18.96;100.00
16525;BME280;8375;33.594;-117.718;2023-07-29T11:40:24;100068.94;;;19.01;100.00
16525;BME280;8375;33.594;-117.718;2023-07-29T11:42:53;100070.03;;;19.07;100.00
16525;BME280;8375;33.594;-117.718;2023-07-29T11:45:23;100061.16;;;19.08;100.00
16525;BME280;8375;33.594;-117.718;2023-07-29T11:47:51;100074.66;;;19.05;100.00
16525;BME280;8375;33.594;-117.718;2023-07-29T11:50:20;100076.00;;;19.01;100.00
16525;BME280;8375;33.594;-117.718;2023-07-29T11:52:50;100069.47;;;18.97;100.00
16525;BME280;8375;33.594;-117.718;2023-07-29T11:55:20;100060.09;;;18.94;100.00
16525;BME280;8375;33.594;-117.718;2023-07-29T11:57:51;100061.59;;;18.88;100.00
16525;BME280;8375;33.594;-117.718;2023-07-29T12:00:21;100070.47;;;18.87;100.00
16525;BME280;8375;33.594;-117.718;2023-07-29T12:02:50;100077.38;;;18.88;100.00
16525;BME280;8375;33.594;-117.718;2023-07-29T12:05:20;100084.91;;;18.91;100.00
16525;BME280;8375;33.594;-117.718;2023-07-29T12:07:51;100084.91;;;18.91;100.00
16525;BME280;8375;33.594;-117.718;2023-07-29T12:10:20;100085.91;;;18.90;100.00
16525;BME280;8375;33.594;-117.718;2023-07-29T12:12:50;100090.38;;;18.90;100.00
16525;BME280;8375;33.594;-117.718;2023-07-29T12:15:26;100089.78;;;18.80;100.00
16525;BME280;8375;33.594;-117.718;2023-07-29T12:17:56;100088.31;;;18.77;100.00
16525;BME280;8375;33.594;-117.718;2023-07-29T12:20:25;100083.59;;;18.72;100.00
16525;BME280;8375;33.594;-117.718;2023-07-29T12:22:56;100091.63;;;18.71;100.00
16525;BME280;8375;33.594;-117.718;2023-07-29T12:25:27;100102.63;;;18.74;100.00
16525;BME280;8375;33.594;-117.718;2023-07-29T12:27:56;100088.94;;;18.79;100.00
16525;BME280;8375;33.594;-117.718;2023-07-29T12:30:24;100089.63;;;18.73;100.00
16525;BME280;8375;33.594;-117.718;2023-07-29T12:32:53;100088.19;;;18.70;100.00
16525;BME280;8375;33.594;-117.718;2023-07-29T12:35:22;100088.00;;;18.72;100.00
16525;BME280;8375;33.594;-117.718;2023-07-29T12:38:00;100090.00;;;18.70;100.00
16525;BME280;8375;33.594;-117.718;2023-07-29T12:40:29;100092.56;;;18.78;100.00
16525;BME280;8375;33.594;-117.718;2023-07-29T12:42:58;100087.16;;;18.80;100.00